createdAt,value
2019-05-28T00:01:04.372Z,11.92
2019-05-28T00:03:32.650Z,11.86
2019-05-28T00:06:01.340Z,11.81
2019-05-28T00:08:38.764Z,11.75
2019-05-28T00:11:10.269Z,11.70
2019-05-28T00:13:38.540Z,11.65
2019-05-28T00:16:09.912Z,11.65
2019-05-28T00:18:38.309Z,11.62
2019-05-28T00:21:06.492Z,11.61
2019-05-28T00:23:35.115Z,11.63
2019-05-28T00:26:02.771Z,11.64
2019-05-28T00:28:30.961Z,11.73
2019-05-28T00:30:59.206Z,11.72
2019-05-28T00:33:27.506Z,11.74
2019-05-28T00:35:56.089Z,11.74
2019-05-28T00:38:24.368Z,11.95
2019-05-28T00:40:53.317Z,11.85
2019-05-28T00:43:21.640Z,11.68
2019-05-28T00:45:49.911Z,11.60
2019-05-28T00:48:18.185Z,11.49
2019-05-28T00:50:46.382Z,11.41
2019-05-28T00:53:14.576Z,11.35
2019-05-28T00:55:43.836Z,11.29
2019-05-28T00:58:12.168Z,11.27
2019-05-28T01:00:50.298Z,11.23
2019-05-28T01:03:18.434Z,11.32
2019-05-28T01:05:47.148Z,11.37
2019-05-28T01:08:15.451Z,11.36
2019-05-28T01:10:44.397Z,11.44
2019-05-28T01:13:13.412Z,11.41
2019-05-28T01:15:41.339Z,11.41
2019-05-28T01:18:10.446Z,11.44
2019-05-28T01:20:39.104Z,11.60
2019-05-28T01:23:07.009Z,11.76
2019-05-28T01:25:35.636Z,11.76
2019-05-28T01:28:04.237Z,11.81
2019-05-28T01:30:34.136Z,11.81
2019-05-28T01:33:02.089Z,11.72
2019-05-28T01:35:30.295Z,11.66
2019-05-28T01:37:58.582Z,11.63
2019-05-28T01:40:27.185Z,11.62
2019-05-28T01:42:55.666Z,11.61
2019-05-28T01:45:24.242Z,11.64
2019-05-28T01:47:52.630Z,11.63
2019-05-28T01:50:20.784Z,11.57
2019-05-28T01:52:49.022Z,11.53
2019-05-28T01:55:17.739Z,11.48
2019-05-28T01:57:46.346Z,11.43
2019-05-28T02:00:16.443Z,11.40
2019-05-28T02:02:46.913Z,11.39
2019-05-28T02:05:17.979Z,11.48
2019-05-28T02:07:46.271Z,11.62
2019-05-28T02:10:14.945Z,11.55
2019-05-28T02:12:43.226Z,11.50
2019-05-28T02:15:12.322Z,11.43
2019-05-28T02:17:40.609Z,11.44
2019-05-28T02:20:09.722Z,11.47
2019-05-28T02:22:38.098Z,11.45
2019-05-28T02:25:07.592Z,11.48
2019-05-28T02:27:35.905Z,11.55
2019-05-28T02:30:04.463Z,11.66
2019-05-28T02:32:32.594Z,11.60
2019-05-28T02:35:01.041Z,11.48
2019-05-28T02:37:29.629Z,11.41
2019-05-28T02:39:57.812Z,11.36
2019-05-28T02:42:25.990Z,11.46
2019-05-28T02:44:55.301Z,11.40
2019-05-28T02:47:23.532Z,11.38
2019-05-28T02:49:51.864Z,11.40
2019-05-28T02:52:19.413Z,11.39
2019-05-28T02:54:47.466Z,11.40
2019-05-28T02:57:16.687Z,11.38
2019-05-28T02:59:47.027Z,11.39
2019-05-28T03:02:15.754Z,11.41
2019-05-28T03:04:44.614Z,11.41
2019-05-28T03:07:13.313Z,11.41
2019-05-28T03:09:43.322Z,11.40
2019-05-28T03:12:11.860Z,11.41
2019-05-28T03:14:40.469Z,11.40
2019-05-28T03:17:09.046Z,11.43
2019-05-28T03:19:38.511Z,11.43
2019-05-28T03:22:08.764Z,11.44
2019-05-28T03:24:37.905Z,11.44
2019-05-28T03:27:05.904Z,11.47
2019-05-28T03:29:35.941Z,11.46
2019-05-28T03:32:08.421Z,11.43
2019-05-28T03:34:35.631Z,11.45
2019-05-28T03:37:04.055Z,11.39
2019-05-28T03:39:32.667Z,11.40
2019-05-28T03:42:00.825Z,11.36
2019-05-28T03:44:29.483Z,11.34
2019-05-28T03:46:58.207Z,11.29
2019-05-28T03:49:27.082Z,11.29
2019-05-28T03:51:55.072Z,11.33
2019-05-28T03:54:23.717Z,11.33
2019-05-28T03:56:53.405Z,11.26
2019-05-28T03:59:21.460Z,11.14
2019-05-28T04:01:49.784Z,11.07
2019-05-28T04:04:17.920Z,11.01
2019-05-28T04:06:46.110Z,11.02
2019-05-28T04:09:14.335Z,11.00
2019-05-28T04:11:44.986Z,10.91
2019-05-28T04:14:12.742Z,10.76
2019-05-28T04:16:40.973Z,10.64
2019-05-28T04:19:08.919Z,10.49
2019-05-28T04:21:37.224Z,10.43
2019-05-28T04:24:06.952Z,10.43
2019-05-28T04:26:35.234Z,10.40
2019-05-28T04:29:03.101Z,10.43
2019-05-28T04:31:31.444Z,10.41
2019-05-28T04:33:59.431Z,10.40
2019-05-28T04:36:28.886Z,10.36
2019-05-28T04:38:57.153Z,10.28
2019-05-28T04:41:25.536Z,10.21
2019-05-28T04:43:54.987Z,10.13
2019-05-28T04:46:22.860Z,10.13
2019-05-28T04:48:51.363Z,10.10
2019-05-28T04:51:19.698Z,10.10
2019-05-28T04:53:47.556Z,10.14
2019-05-28T04:56:16.166Z,10.10
2019-05-28T04:58:44.430Z,10.14
2019-05-28T05:01:13.035Z,10.14
2019-05-28T05:03:40.574Z,10.12
2019-05-28T05:06:09.392Z,10.13
2019-05-28T05:08:37.995Z,10.12
2019-05-28T05:11:06.625Z,10.10
2019-05-28T05:13:34.230Z,10.07
2019-05-28T05:16:02.876Z,10.05
2019-05-28T05:18:30.386Z,10.04
2019-05-28T05:20:58.252Z,10.08
2019-05-28T05:23:26.646Z,10.09
2019-05-28T05:25:56.222Z,10.11
2019-05-28T05:28:24.515Z,10.18
2019-05-28T05:30:52.190Z,10.22
2019-05-28T05:33:21.033Z,10.29
2019-05-28T05:35:49.690Z,10.23
2019-05-28T05:38:17.246Z,10.26
2019-05-28T05:40:45.151Z,10.24
2019-05-28T05:43:13.822Z,10.24
2019-05-28T05:45:42.131Z,10.17
2019-05-28T05:48:10.596Z,10.14
2019-05-28T05:50:39.381Z,10.13
2019-05-28T05:53:08.740Z,10.10
2019-05-28T05:55:36.238Z,10.14
2019-05-28T05:58:04.439Z,10.05
2019-05-28T06:00:32.700Z,10.10
2019-05-28T06:03:00.598Z,10.08
2019-05-28T06:05:28.808Z,10.00
2019-05-28T06:07:57.518Z,9.99
2019-05-28T06:10:26.063Z,9.99
2019-05-28T06:12:54.441Z,10.01
2019-05-28T06:15:22.296Z,10.01
2019-05-28T06:17:52.580Z,10.05
2019-05-28T06:20:21.148Z,10.09
2019-05-28T06:22:49.587Z,10.14
2019-05-28T06:25:19.909Z,10.23
2019-05-28T06:27:48.515Z,10.22
2019-05-28T06:30:17.028Z,10.25
2019-05-28T06:32:45.593Z,10.07
2019-05-28T06:35:14.287Z,9.94
2019-05-28T06:37:42.616Z,9.85
2019-05-28T06:40:11.836Z,9.82
2019-05-28T06:42:40.356Z,9.73
2019-05-28T06:45:09.118Z,9.70
2019-05-28T06:47:37.963Z,9.75
2019-05-28T06:50:07.599Z,9.88
2019-05-28T06:52:35.975Z,9.88
2019-05-28T06:55:04.660Z,9.88
2019-05-28T06:57:33.231Z,10.02
2019-05-28T07:00:01.118Z,10.15
2019-05-28T07:02:29.519Z,10.28
2019-05-28T07:04:58.251Z,10.39
2019-05-28T07:07:26.771Z,10.46
2019-05-28T07:09:55.049Z,10.56
2019-05-28T07:12:22.906Z,10.69
2019-05-28T07:14:51.363Z,10.80
2019-05-28T07:17:19.710Z,10.82
2019-05-28T07:19:48.092Z,10.84
2019-05-28T07:22:16.382Z,10.91
2019-05-28T07:24:44.322Z,10.91
2019-05-28T07:27:14.083Z,10.93
2019-05-28T07:29:42.031Z,10.91
2019-05-28T07:32:10.404Z,10.90
2019-05-28T07:34:38.341Z,10.85
2019-05-28T07:37:06.637Z,10.80
2019-05-28T07:39:34.842Z,10.69
2019-05-28T07:42:03.102Z,10.63
2019-05-28T07:44:32.322Z,10.64
2019-05-28T07:47:00.853Z,10.63
2019-05-28T07:49:29.383Z,10.57
2019-05-28T07:51:57.678Z,10.51
2019-05-28T07:54:26.185Z,10.57
2019-05-28T07:56:54.567Z,10.66
2019-05-28T07:59:23.188Z,10.72
2019-05-28T08:01:51.541Z,10.69
2019-05-28T08:04:20.231Z,10.66
2019-05-28T08:06:54.644Z,10.60
2019-05-28T08:09:20.999Z,10.51
2019-05-28T08:11:49.490Z,10.27
2019-05-28T08:14:47.330Z,10.18
2019-05-28T08:17:18.818Z,10.09
2019-05-28T08:20:13.461Z,10.03
2019-05-28T08:23:14.249Z,10.07
2019-05-28T08:26:11.841Z,10.16
2019-05-28T08:29:08.692Z,10.41
2019-05-28T08:32:07.012Z,10.47
2019-05-28T08:35:06.363Z,10.68
2019-05-28T08:37:47.553Z,10.91
2019-05-28T08:40:25.028Z,10.99
2019-05-28T08:43:02.477Z,11.02
2019-05-28T08:45:36.383Z,11.03
2019-05-28T08:51:11.519Z,10.92
2019-05-28T08:54:04.628Z,11.06
2019-05-28T08:56:51.901Z,11.13
2019-05-28T08:59:43.146Z,11.16
2019-05-28T09:02:43.241Z,11.13
2019-05-28T09:05:29.560Z,11.16
2019-05-28T09:08:17.413Z,11.18
2019-05-28T09:10:46.222Z,11.10
2019-05-28T09:13:37.210Z,11.17
2019-05-28T09:16:20.219Z,11.33
2019-05-28T09:19:05.500Z,11.20
2019-05-28T09:21:54.451Z,11.22
2019-05-28T09:24:48.928Z,10.90
2019-05-28T09:27:51.634Z,10.52
2019-05-28T09:30:47.130Z,10.25
2019-05-28T09:33:15.670Z,10.09
2019-05-28T09:36:03.474Z,10.09
2019-05-28T09:38:14.241Z,10.10
2019-05-28T09:40:50.061Z,10.10
2019-05-28T09:43:12.020Z,10.23
2019-05-28T09:45:56.606Z,10.31
2019-05-28T09:48:25.201Z,10.40
2019-05-28T09:50:53.333Z,10.42
2019-05-28T09:53:21.366Z,10.46
2019-05-28T09:55:49.179Z,10.56
2019-05-28T09:58:17.628Z,10.66
2019-05-28T10:00:57.378Z,10.75
2019-05-28T10:03:15.898Z,10.92
2019-05-28T10:05:56.980Z,10.85
2019-05-28T10:08:12.974Z,10.87
2019-05-28T10:10:41.696Z,10.97
2019-05-28T10:13:10.056Z,11.05
2019-05-28T10:15:38.102Z,11.13
2019-05-28T10:18:06.537Z,11.14
2019-05-28T10:20:38.167Z,11.08
2019-05-28T10:23:06.446Z,11.07
2019-05-28T10:25:34.808Z,11.15
2019-05-28T10:28:02.678Z,11.27
2019-05-28T10:30:31.337Z,11.28
2019-05-28T10:32:59.957Z,11.49
2019-05-28T10:35:29.161Z,11.56
2019-05-28T10:37:57.562Z,11.68
2019-05-28T10:40:25.933Z,11.85
2019-05-28T10:42:54.167Z,11.97
2019-05-28T10:45:23.129Z,12.00
2019-05-28T10:47:51.819Z,12.02
2019-05-28T10:50:21.177Z,12.01
2019-05-28T10:52:49.807Z,12.09
2019-05-28T10:55:18.187Z,12.16
2019-05-28T10:57:46.865Z,12.19
2019-05-28T11:00:15.980Z,12.40
2019-05-28T11:02:44.645Z,12.58
2019-05-28T11:05:13.812Z,12.69
2019-05-28T11:07:41.696Z,12.77
2019-05-28T11:10:23.234Z,12.88
2019-05-28T11:12:40.245Z,12.88
2019-05-28T11:15:08.827Z,12.75
2019-05-28T11:17:37.234Z,12.99
2019-05-28T11:20:05.827Z,13.05
2019-05-28T11:22:34.255Z,13.03
2019-05-28T11:25:03.022Z,12.95
2019-05-28T11:27:31.081Z,12.96
2019-05-28T11:29:59.769Z,13.05
2019-05-28T11:32:27.854Z,13.22
2019-05-28T11:34:56.061Z,13.28
2019-05-28T11:37:24.817Z,13.17
2019-05-28T11:39:53.115Z,13.07
2019-05-28T11:42:21.252Z,13.22
2019-05-28T11:44:49.488Z,13.25
2019-05-28T11:47:18.237Z,13.32
2019-05-28T11:49:46.840Z,13.38
2019-05-28T11:52:15.574Z,13.37
2019-05-28T11:54:44.389Z,13.29
2019-05-28T11:57:12.761Z,13.29
2019-05-28T11:59:40.677Z,13.24
2019-05-28T12:02:10.484Z,13.50
2019-05-28T12:04:38.895Z,13.71
2019-05-28T12:07:08.018Z,13.76
2019-05-28T12:09:36.371Z,13.93
2019-05-28T12:12:04.403Z,13.63
2019-05-28T12:14:33.151Z,13.67
2019-05-28T12:17:02.465Z,13.97
2019-05-28T12:19:30.806Z,14.12
2019-05-28T12:22:00.885Z,14.16
2019-05-28T12:24:29.473Z,14.02
2019-05-28T12:26:58.225Z,14.08
2019-05-28T12:29:26.841Z,14.00
2019-05-28T12:31:55.339Z,13.62
2019-05-28T12:34:25.619Z,13.45
2019-05-28T12:36:54.329Z,13.19
2019-05-28T12:39:22.393Z,12.85
2019-05-28T12:42:01.434Z,12.68
2019-05-28T12:44:20.817Z,12.36
2019-05-28T12:46:49.328Z,12.23
2019-05-28T12:49:17.481Z,12.12
2019-05-28T12:51:46.162Z,12.13
2019-05-28T12:54:14.672Z,12.16
2019-05-28T12:56:43.376Z,12.30
2019-05-28T12:59:11.988Z,12.58
2019-05-28T13:01:40.578Z,12.60
2019-05-28T13:04:08.404Z,12.59
2019-05-28T13:06:36.682Z,12.45
2019-05-28T13:09:06.852Z,12.40
2019-05-28T13:11:34.979Z,12.50
2019-05-28T13:14:03.602Z,12.65
2019-05-28T13:16:32.398Z,12.70
2019-05-28T13:19:01.058Z,12.67
2019-05-28T13:21:29.020Z,12.65
2019-05-28T13:23:57.635Z,12.69
2019-05-28T13:26:26.337Z,12.73
2019-05-28T13:28:54.144Z,12.91
2019-05-28T13:31:23.896Z,12.82
2019-05-28T13:33:52.038Z,12.95
2019-05-28T13:36:20.613Z,12.92
2019-05-28T13:38:49.184Z,13.32
2019-05-28T13:41:17.402Z,13.36
2019-05-28T13:43:46.003Z,13.42
2019-05-28T13:46:13.856Z,13.64
2019-05-28T13:48:41.993Z,13.70
2019-05-28T13:51:11.379Z,13.96
2019-05-28T13:53:40.013Z,14.04
2019-05-28T13:56:07.957Z,14.08
2019-05-28T13:58:35.923Z,13.93
2019-05-28T14:01:04.415Z,13.74
2019-05-28T14:03:32.609Z,13.72
2019-05-28T14:06:01.373Z,13.79
2019-05-28T14:08:44.625Z,13.89
2019-05-28T14:10:59.797Z,14.03
2019-05-28T14:13:28.068Z,14.19
2019-05-28T14:15:56.247Z,14.29
2019-05-28T14:18:24.574Z,14.37
2019-05-28T14:20:52.806Z,14.40
2019-05-28T14:23:20.802Z,14.68
2019-05-28T14:25:49.184Z,14.69
2019-05-28T14:28:21.596Z,14.05
2019-05-28T14:30:59.833Z,13.98
2019-05-28T14:33:22.023Z,13.87
2019-05-28T14:35:50.218Z,13.75
2019-05-28T14:38:18.555Z,13.68
2019-05-28T14:40:47.208Z,13.65
2019-05-28T14:43:16.002Z,13.64
2019-05-28T14:45:43.946Z,13.69
2019-05-28T14:48:12.433Z,13.56
2019-05-28T14:50:42.138Z,13.44
2019-05-28T14:53:11.826Z,13.54
2019-05-28T14:55:40.493Z,13.69
2019-05-28T14:58:13.397Z,13.70
2019-05-28T15:00:39.809Z,13.71
2019-05-28T15:03:08.661Z,13.78
2019-05-28T15:05:36.918Z,13.77
2019-05-28T15:08:05.265Z,13.78
2019-05-28T15:10:34.219Z,13.66
2019-05-28T15:13:02.602Z,13.65
2019-05-28T15:15:35.911Z,13.88
2019-05-28T15:18:01.118Z,14.08
2019-05-28T15:20:29.934Z,14.07
2019-05-28T15:22:58.326Z,14.03
2019-05-28T15:25:26.726Z,14.01
2019-05-28T15:27:55.573Z,14.02
2019-05-28T15:30:33.982Z,13.98
2019-05-28T15:33:02.758Z,14.10
2019-05-28T15:35:31.383Z,14.14
2019-05-28T15:38:00.578Z,14.22
2019-05-28T15:40:29.151Z,14.33
2019-05-28T15:43:06.119Z,14.22
2019-05-28T15:45:27.772Z,14.24
2019-05-28T15:47:56.138Z,14.42
2019-05-28T15:50:24.549Z,14.59
2019-05-28T15:52:53.272Z,14.78
2019-05-28T15:55:21.529Z,14.83
2019-05-28T15:57:49.676Z,14.89
2019-05-28T16:00:20.556Z,15.01
2019-05-28T16:02:48.949Z,15.09
2019-05-28T16:05:17.707Z,15.32
2019-05-28T16:07:46.394Z,15.43
2019-05-28T16:10:14.809Z,15.41
2019-05-28T16:12:43.498Z,15.14
2019-05-28T16:15:12.212Z,15.00
2019-05-28T16:17:40.518Z,14.95
2019-05-28T16:20:09.657Z,14.84
2019-05-28T16:22:38.244Z,14.88
2019-05-28T16:25:07.432Z,14.94
2019-05-28T16:27:36.067Z,14.88
2019-05-28T16:30:04.900Z,14.82
2019-05-28T16:32:33.683Z,14.76
2019-05-28T16:35:02.467Z,14.65
2019-05-28T16:37:30.735Z,14.55
2019-05-28T16:40:13.509Z,14.46
2019-05-28T16:42:28.703Z,14.44
2019-05-28T16:44:58.645Z,14.29
2019-05-28T16:47:27.715Z,14.24
2019-05-28T16:49:57.009Z,14.26
2019-05-28T16:52:25.515Z,14.02
2019-05-28T16:54:53.701Z,13.72
2019-05-28T16:57:22.166Z,13.65
2019-05-28T16:59:50.968Z,13.53
2019-05-28T17:02:20.444Z,13.58
2019-05-28T17:04:48.765Z,13.47
2019-05-28T17:07:16.846Z,13.30
2019-05-28T17:09:45.542Z,13.15
2019-05-28T17:12:13.432Z,12.92
2019-05-28T17:14:40.639Z,12.75
2019-05-28T17:17:09.374Z,12.51
2019-05-28T17:19:37.648Z,12.12
2019-05-28T17:22:06.129Z,11.70
2019-05-28T17:24:34.477Z,11.26
2019-05-28T17:27:03.169Z,10.84
2019-05-28T17:29:31.465Z,10.57
2019-05-28T17:32:01.629Z,10.39
2019-05-28T17:34:29.889Z,10.27
2019-05-28T17:36:58.293Z,10.14
2019-05-28T17:39:26.723Z,10.06
2019-05-28T17:41:55.236Z,10.01
2019-05-28T17:44:23.544Z,9.88
2019-05-28T17:46:51.866Z,9.79
2019-05-28T17:49:20.512Z,9.71
2019-05-28T17:51:48.794Z,9.65
2019-05-28T17:54:17.054Z,9.48
2019-05-28T17:56:44.942Z,9.43
2019-05-28T17:59:13.245Z,9.33
2019-05-28T18:01:41.931Z,9.41
2019-05-28T18:04:10.718Z,9.45
2019-05-28T18:06:39.329Z,9.33
2019-05-28T18:09:07.447Z,9.28
2019-05-28T18:11:36.138Z,9.43
2019-05-28T18:14:04.549Z,9.42
2019-05-28T18:16:32.154Z,9.54
2019-05-28T18:19:01.063Z,9.54
2019-05-28T18:21:29.479Z,9.52
2019-05-28T18:23:58.182Z,9.52
2019-05-28T18:26:26.922Z,9.57
2019-05-28T18:28:55.304Z,9.59
2019-05-28T18:31:23.541Z,9.62
2019-05-28T18:33:50.963Z,9.63
2019-05-28T18:36:19.238Z,9.59
2019-05-28T18:38:47.680Z,9.65
2019-05-28T18:41:21.660Z,9.69
2019-05-28T18:43:47.618Z,9.71
2019-05-28T18:46:15.978Z,9.78
2019-05-28T18:48:43.799Z,9.86
2019-05-28T18:51:12.584Z,9.92
2019-05-28T18:53:40.848Z,9.91
2019-05-28T18:56:16.933Z,9.85
2019-05-28T18:58:40.910Z,9.77
2019-05-28T19:01:09.583Z,9.74
2019-05-28T19:03:38.104Z,9.76
2019-05-28T19:06:06.489Z,9.79
2019-05-28T19:08:34.723Z,9.71
2019-05-28T19:11:03.118Z,9.67
2019-05-28T19:13:32.680Z,9.53
2019-05-28T19:16:01.013Z,9.60
2019-05-28T19:18:29.316Z,9.63
2019-05-28T19:20:57.662Z,9.69
2019-05-28T19:23:26.181Z,9.64
2019-05-28T19:25:55.061Z,9.58
2019-05-28T19:28:23.395Z,9.53
2019-05-28T19:30:52.027Z,9.45
2019-05-28T19:33:20.649Z,9.48
2019-05-28T19:35:49.140Z,9.57
2019-05-28T19:38:18.098Z,9.56
2019-05-28T19:40:46.618Z,9.55
2019-05-28T19:43:15.502Z,9.43
2019-05-28T19:45:43.437Z,9.38
2019-05-28T19:48:11.731Z,9.34
2019-05-28T19:50:39.380Z,9.32
2019-05-28T19:53:08.016Z,9.25
2019-05-28T19:55:36.677Z,9.22
2019-05-28T19:58:06.109Z,9.21
2019-05-28T20:00:34.584Z,9.19
2019-05-28T20:03:03.095Z,9.14
2019-05-28T20:05:31.459Z,9.09
2019-05-28T20:07:59.719Z,9.12
2019-05-28T20:10:27.866Z,9.06
2019-05-28T20:12:55.905Z,9.09
2019-05-28T20:15:25.799Z,9.10
2019-05-28T20:17:56.726Z,9.14
2019-05-28T20:20:25.248Z,9.14
2019-05-28T20:22:54.012Z,9.14
2019-05-28T20:25:23.142Z,9.13
2019-05-28T20:27:51.942Z,9.07
2019-05-28T20:30:22.174Z,9.03
2019-05-28T20:32:50.967Z,9.03
2019-05-28T20:35:19.225Z,9.10
2019-05-28T20:37:47.518Z,9.29
2019-05-28T20:40:16.014Z,9.27
2019-05-28T20:42:44.694Z,9.31
2019-05-28T20:45:15.171Z,9.26
2019-05-28T20:47:43.482Z,9.21
2019-05-28T20:50:12.017Z,9.27
2019-05-28T20:52:40.301Z,9.40
2019-05-28T20:55:09.446Z,9.46
2019-05-28T20:57:37.767Z,9.39
2019-05-28T21:00:06.520Z,9.35
2019-05-28T21:02:36.127Z,9.38
2019-05-28T21:05:05.094Z,9.43
2019-05-28T21:07:34.698Z,9.52
2019-05-28T21:10:02.512Z,9.48
2019-05-28T21:12:42.750Z,9.40
2019-05-28T21:15:00.643Z,9.39
2019-05-28T21:17:28.941Z,9.42
2019-05-28T21:19:59.430Z,9.33
2019-05-28T21:22:28.221Z,9.37
2019-05-28T21:24:58.801Z,9.30
2019-05-28T21:27:27.512Z,9.35
2019-05-28T21:29:56.254Z,9.38
2019-05-28T21:32:24.264Z,9.39
2019-05-28T21:34:57.308Z,9.33
2019-05-28T21:37:24.196Z,9.36
2019-05-28T21:39:53.497Z,9.26
2019-05-28T21:42:21.493Z,9.25
2019-05-28T21:44:50.072Z,9.16
2019-05-28T21:47:18.453Z,9.12
2019-05-28T21:49:46.647Z,9.19
2019-05-28T21:52:14.620Z,9.17
2019-05-28T21:54:42.990Z,9.13
2019-05-28T21:57:12.642Z,9.12
2019-05-28T21:59:41.219Z,9.09
2019-05-28T22:02:10.479Z,9.04
2019-05-28T22:04:38.357Z,9.05
2019-05-28T22:07:07.851Z,8.93
2019-05-28T22:09:36.161Z,8.90
2019-05-28T22:12:05.081Z,8.85
2019-05-28T22:14:33.207Z,8.91
2019-05-28T22:17:03.556Z,8.83
2019-05-28T22:19:32.141Z,8.81
2019-05-28T22:22:00.549Z,8.84
2019-05-28T22:24:28.917Z,8.88
2019-05-28T22:26:58.481Z,8.92
2019-05-28T22:29:27.406Z,8.88
2019-05-28T22:31:56.827Z,8.85
2019-05-28T22:34:25.118Z,8.82
2019-05-28T22:36:56.176Z,8.73
2019-05-28T22:39:24.835Z,8.76
2019-05-28T22:41:53.251Z,8.76
2019-05-28T22:44:21.707Z,8.87
2019-05-28T22:46:51.396Z,8.85
2019-05-28T22:49:19.681Z,8.86
2019-05-28T22:51:49.849Z,8.94
2019-05-28T22:54:18.083Z,8.84
2019-05-28T22:56:47.443Z,8.88
2019-05-28T22:59:15.616Z,8.94
2019-05-28T23:01:44.146Z,8.98
2019-05-28T23:04:12.534Z,8.96
2019-05-28T23:06:40.922Z,9.01
2019-05-28T23:09:09.849Z,9.06
2019-05-28T23:11:38.457Z,9.05
2019-05-28T23:14:06.708Z,9.10
2019-05-28T23:16:35.806Z,9.12
2019-05-28T23:19:04.987Z,9.09
2019-05-28T23:21:33.791Z,9.05
2019-05-28T23:24:03.141Z,9.13
2019-05-28T23:26:32.295Z,9.05
2019-05-28T23:29:01.624Z,9.02
2019-05-28T23:31:31.000Z,9.01
2019-05-28T23:33:59.149Z,8.96
2019-05-28T23:36:27.731Z,9.08
2019-05-28T23:38:55.594Z,9.02
2019-05-28T23:41:24.074Z,9.04
2019-05-28T23:44:01.495Z,9.05
2019-05-28T23:46:22.638Z,9.02
2019-05-28T23:48:51.206Z,9.07
2019-05-28T23:51:19.385Z,9.04
2019-05-28T23:53:47.558Z,8.98
2019-05-28T23:56:15.928Z,8.92
2019-05-28T23:58:45.652Z,8.91
